Time;durP1;ratioP1;P1;durP2;ratioP2;P2;SDS_P1;SDS_P2;PMS_P1;PMS_P2;Temp;Humidity;BMP_temperature;BMP_pressure;BME280_temperature;BME280_humidity;BME280_pressure;Samples;Min_cycle;Max_cycle;Signal;HPM_P1;HPM_P2
2022/03/05 08:52:04;;;;;;;6.83;3.33;;;;;;;1.56;100.00;99672.98;4638338;74;85163;-79
2022/03/05 08:58:06;;;;;;;4.25;2.22;;;;;;;7.61;50.65;99658.55;4581698;75;28512;-80
2022/03/05 09:04:07;;;;;;;4.45;2.47;;;;;;;8.18;46.02;99669.12;4560625;75;28486;-80
2022/03/05 09:10:10;;;;;;;6.25;2.52;;;;;;;8.15;43.92;99678.91;4592547;75;28489;-79
2022/03/05 09:16:15;;;;;;;5.83;2.60;;;;;;;10.33;41.37;99672.30;4550601;76;28521;-79
2022/03/05 09:22:23;;;;;;;6.72;3.98;;;;;;;10.88;39.19;99676.89;4568699;76;28505;-80
2022/03/05 09:28:24;;;;;;;4.75;3.10;;;;;;;9.74;38.73;99679.02;4560337;75;28548;-81
2022/03/05 09:34:26;;;;;;;5.20;3.12;;;;;;;10.37;36.53;99679.95;4611902;75;28504;-83
2022/03/05 09:40:33;;;;;;;6.50;3.17;;;;;;;10.57;36.85;99686.59;4598659;76;28523;-84
2022/03/05 09:46:37;;;;;;;5.40;2.90;;;;;;;11.54;35.29;99684.66;4548278;76;28613;-83
2022/03/05 09:52:39;;;;;;;5.33;3.08;;;;;;;11.68;33.20;99676.74;4641190;76;28565;-86
2022/03/05 09:58:40;;;;;;;7.78;3.80;;;;;;;11.22;34.82;99684.73;4602200;75;28460;-79
2022/03/05 10:04:43;;;;;;;6.17;3.42;;;;;;;11.04;34.79;99687.65;4608935;75;28503;-82
2022/03/05 10:23:24;;;;;;;6.75;3.80;;;;;;;9.62;36.83;99692.75;4603652;76;28505;-83
2022/03/05 10:29:56;;;;;;;6.45;3.98;;;;;;;10.06;37.57;99685.02;4585832;76;28537;-85
2022/03/05 10:36:07;;;;;;;5.67;3.52;;;;;;;9.91;38.48;99687.95;4439173;79;28542;-85
2022/03/05 10:42:29;;;;;;;5.80;2.60;;;;;;;10.43;37.18;99681.80;4551581;75;28509;-83
2022/03/05 10:48:40;;;;;;;5.45;2.90;;;;;;;10.35;35.92;99680.16;4628721;75;28555;-85
2022/03/05 10:54:54;;;;;;;6.80;2.33;;;;;;;10.57;34.68;99680.71;4607626;75;28473;-83
2022/03/05 11:01:17;;;;;;;3.00;1.35;;;;;;;10.49;32.97;99676.92;4577690;75;28526;-86
2022/03/05 11:07:23;;;;;;;4.08;1.82;;;;;;;9.67;31.13;99670.15;4502912;78;28477;-77
2022/03/05 11:13:24;;;;;;;5.60;3.10;;;;;;;9.69;31.05;99672.10;4517796;77;28530;-79
2022/03/05 11:19:27;;;;;;;6.08;3.22;;;;;;;8.88;34.11;99686.06;4534534;77;28538;-79
2022/03/05 11:25:31;;;;;;;5.03;2.35;;;;;;;8.69;35.98;99681.79;4527302;77;28462;-78
2022/03/05 11:31:36;;;;;;;5.55;3.10;;;;;;;8.18;36.36;99695.10;4503439;77;28504;-81
2022/03/05 11:37:39;;;;;;;4.67;2.83;;;;;;;8.41;36.59;99681.36;4541175;77;28500;-81
2022/03/05 11:43:43;;;;;;;4.55;2.58;;;;;;;8.51;36.55;99684.52;4534188;77;28534;-80
2022/03/05 11:50:08;;;;;;;6.42;3.02;;;;;;;8.79;35.64;99670.66;4492190;77;28511;-79
2022/03/05 11:56:23;;;;;;;4.85;2.50;;;;;;;8.63;35.04;99671.86;4452656;78;28494;-81
2022/03/05 12:02:47;;;;;;;5.08;2.55;;;;;;;8.45;35.01;99673.25;4463525;78;28472;-82
2022/03/05 12:08:52;;;;;;;3.50;1.80;;;;;;;8.76;34.26;99668.39;4461985;78;28481;-81
2022/03/05 12:15:05;;;;;;;3.08;1.85;;;;;;;9.04;33.04;99668.21;4453433;78;28518;-82
2022/03/05 12:21:07;;;;;;;4.80;2.20;;;;;;;9.78;32.10;99668.66;4452348;78;28491;-77
2022/03/05 12:27:15;;;;;;;2.92;1.85;;;;;;;10.54;30.83;99667.68;4465464;77;28524;-79
2022/03/05 12:33:26;;;;;;;3.87;2.08;;;;;;;10.06;30.68;99658.69;4478543;77;28510;-79
2022/03/05 12:39:25;;;;;;;3.45;2.15;;;;;;;9.84;31.36;99651.72;4474476;78;28557;-79
2022/03/05 12:45:41;;;;;;;4.90;2.20;;;;;;;9.35;31.58;99653.34;4472744;78;28536;-83
2022/03/05 12:51:39;;;;;;;4.55;2.70;;;;;;;9.51;32.72;99651.78;4434085;78;28526;-83
2022/03/05 12:57:41;;;;;;;4.50;2.47;;;;;;;10.60;32.31;99654.73;4438831;78;28503;-77
2022/03/05 13:03:45;;;;;;;6.20;2.77;;;;;;;9.37;34.89;99665.23;4442880;78;28576;-76
2022/03/05 13:09:47;;;;;;;4.67;2.65;;;;;;;9.81;35.62;99674.14;4454912;78;28469;-79
2022/03/05 13:15:48;;;;;;;3.22;2.20;;;;;;;9.81;34.88;99662.05;4463862;78;28489;-81
2022/03/05 13:21:52;;;;;;;2.45;1.70;;;;;;;9.82;33.22;99656.98;4463784;78;28554;-78
2022/03/05 13:27:54;;;;;;;4.50;2.30;;;;;;;9.48;33.54;99659.23;4440567;78;28619;-80
2022/03/05 13:33:55;;;;;;;4.90;2.77;;;;;;;10.20;32.95;99654.90;4449788;78;28503;-79
2022/03/05 13:40:04;;;;;;;6.35;2.72;;;;;;;9.64;34.17;99655.81;4437949;78;28513;-80
2022/03/05 13:46:08;;;;;;;5.05;2.80;;;;;;;9.45;35.58;99648.91;4463540;78;28477;-86
2022/03/05 13:52:23;;;;;;;4.42;2.92;;;;;;;10.45;34.83;99653.67;4459277;78;28500;-80
2022/03/05 13:58:23;;;;;;;4.47;2.77;;;;;;;9.50;35.30;99645.61;4539154;77;28487;-81
2022/03/05 14:04:25;;;;;;;7.28;3.65;;;;;;;10.23;34.39;99656.34;4524769;77;28605;-82
2022/03/05 14:10:29;;;;;;;4.90;3.25;;;;;;;9.79;35.43;99660.10;4541542;77;28531;-82
2022/03/05 14:16:38;;;;;;;6.87;3.72;;;;;;;10.75;34.32;99654.94;4542476;77;28527;-82
2022/03/05 14:22:47;;;;;;;5.55;3.15;;;;;;;9.99;34.73;99663.55;4559110;77;28546;-82
2022/03/05 14:28:49;;;;;;;4.78;2.72;;;;;;;10.22;34.73;99656.04;4530231;77;28533;-82
2022/03/05 14:34:51;;;;;;;5.75;3.22;;;;;;;10.27;33.16;99670.48;4529983;77;28535;-81
2022/03/05 14:40:55;;;;;;;5.83;3.47;;;;;;;10.10;34.35;99673.34;4486645;77;28470;-82
2022/03/05 14:46:56;;;;;;;6.83;4.08;;;;;;;10.18;34.86;99678.48;4487692;78;28533;-80
2022/03/05 14:52:59;;;;;;;8.88;4.37;;;;;;;9.94;35.76;99696.12;4531163;77;28583;-81
2022/03/05 14:59:00;;;;;;;8.20;4.83;;;;;;;9.69;36.77;99694.11;4533493;77;28466;-81
2022/03/05 15:05:02;;;;;;;6.37;3.52;;;;;;;9.74;36.08;99695.14;4526233;77;28442;-81
2022/03/05 15:11:03;;;;;;;8.75;3.95;;;;;;;9.72;36.53;99687.78;4532024;77;28510;-84
2022/03/05 15:17:06;;;;;;;9.05;4.72;;;;;;;8.71;38.11;99697.15;4565070;77;28566;-83
2022/03/05 15:23:07;;;;;;;5.47;3.42;;;;;;;9.56;37.48;99687.70;4566491;77;28468;-83
2022/03/05 15:29:09;;;;;;;6.90;3.75;;;;;;;9.21;38.02;99690.63;4567654;77;28495;-83
2022/03/05 15:35:11;;;;;;;7.65;3.83;;;;;;;9.17;38.28;99676.79;4547600;77;28506;-77
2022/03/05 15:41:13;;;;;;;10.05;4.00;;;;;;;8.58;38.82;99673.00;4559588;77;28531;-76
2022/03/05 15:47:15;;;;;;;8.10;4.05;;;;;;;8.95;38.26;99660.59;4563660;77;28526;-76
2022/03/05 16:00:56;;;;;;;;;;;;;;;;;;;;;
2022/03/05 16:07:05;;;;;;;8.48;4.47;;;;;;;9.26;38.43;99663.17;4378906;77;28569;-84
2022/03/05 16:13:15;;;;;;;7.85;4.28;;;;;;;9.34;38.58;99666.46;4579954;76;28484;-85
2022/03/05 16:19:20;;;;;;;7.12;3.98;;;;;;;9.08;38.79;99667.83;4597093;76;28518;-83
2022/03/05 16:25:32;;;;;;;8.85;4.85;;;;;;;8.84;38.87;99664.19;4488859;76;28528;-84
2022/03/05 16:31:33;;;;;;;8.00;4.47;;;;;;;8.71;39.39;99669.00;4553608;76;28474;-82
2022/03/05 16:37:46;;;;;;;7.10;4.05;;;;;;;8.75;39.74;99674.78;4567959;76;28515;-85
2022/03/05 16:43:51;;;;;;;9.50;4.97;;;;;;;8.47;39.98;99685.09;4532475;76;28508;-84
2022/03/05 16:49:56;;;;;;;8.93;4.35;;;;;;;9.24;39.02;99678.66;4559789;76;28549;-81
2022/03/05 16:55:58;;;;;;;7.47;4.75;;;;;;;9.34;38.99;99680.41;4505976;77;28502;-83
2022/03/05 17:02:07;;;;;;;8.48;4.22;;;;;;;9.17;39.39;99698.25;4543625;77;28530;-86
2022/03/05 17:08:21;;;;;;;9.18;4.65;;;;;;;9.33;38.99;99702.92;4565779;77;28537;-85
2022/03/05 17:14:31;;;;;;;8.15;4.72;;;;;;;9.45;38.86;99701.26;4550617;77;28488;-85
2022/03/05 17:20:34;;;;;;;11.70;5.08;;;;;;;9.24;39.26;99697.44;4541561;77;28520;-82
2022/03/05 17:26:37;;;;;;;11.73;4.80;;;;;;;9.05;39.58;99693.20;4541892;77;28530;-88
2022/03/05 17:32:41;;;;;;;8.33;4.47;;;;;;;9.67;38.95;99690.28;4554313;77;28563;-84
2022/03/05 17:38:43;;;;;;;8.83;5.35;;;;;;;9.63;39.27;99689.03;4561310;77;28479;-82
2022/03/05 17:44:44;;;;;;;9.70;4.65;;;;;;;8.67;40.42;99695.91;4560904;77;28474;-84
2022/03/05 17:50:48;;;;;;;8.20;4.67;;;;;;;8.62;41.05;99698.36;4560978;77;28517;-84
2022/03/05 17:56:51;;;;;;;10.25;5.33;;;;;;;9.15;40.08;99698.14;4513059;78;28549;-88
2022/03/05 18:02:59;;;;;;;10.82;6.12;;;;;;;8.58;41.12;99697.13;4535938;77;28677;-85
2022/03/05 18:09:00;;;;;;;11.73;6.58;;;;;;;8.52;41.67;99704.12;4577110;77;28516;-82
2022/03/05 18:15:04;;;;;;;13.45;6.65;;;;;;;9.19;41.36;99699.40;4539091;77;28429;-80
2022/03/05 18:21:08;;;;;;;16.40;7.85;;;;;;;8.66;42.13;99709.01;4528968;77;28510;-78
2022/03/05 18:27:15;;;;;;;16.77;7.90;;;;;;;8.74;42.34;99710.67;4557489;77;28456;-72
2022/03/05 18:33:16;;;;;;;14.28;7.95;;;;;;;8.97;43.02;99715.67;4506900;77;43919;-82
2022/03/05 18:39:24;;;;;;;15.00;8.30;;;;;;;8.98;43.32;99720.52;4540092;77;28492;-77
2022/03/05 18:45:29;;;;;;;20.80;9.08;;;;;;;8.93;44.06;99722.46;4543098;77;43920;-77
2022/03/05 18:51:36;;;;;;;18.62;9.45;;;;;;;9.04;44.06;99722.39;4540978;77;28614;-75
2022/03/05 18:57:41;;;;;;;16.77;9.35;;;;;;;8.90;44.44;99718.36;4514331;77;28483;-73
2022/03/05 19:03:47;;;;;;;17.48;9.03;;;;;;;8.91;44.83;99724.53;4568208;77;28939;-74
2022/03/05 19:09:48;;;;;;;;;;;;;;;9.51;44.18;99714.36;4553016;77;28499;-87
2022/03/05 19:15:50;;;;;;;15.78;8.80;;;;;;;8.93;45.42;99725.14;4536009;77;20964;-78
2022/03/05 19:21:55;;;;;;;19.92;10.03;;;;;;;9.09;44.96;99729.83;4541880;77;28571;-77
2022/03/05 19:27:56;;;;;;;21.40;11.15;;;;;;;9.48;44.42;99730.89;4543547;77;28512;-83
2022/03/05 19:33:57;;;;;;;23.85;12.05;;;;;;;9.30;44.98;99736.85;4564543;77;28522;-76
2022/03/05 19:39:59;;;;;;;25.85;14.03;;;;;;;8.45;47.55;99750.97;4558041;77;28519;-76
2022/03/05 19:46:00;;;;;;;25.23;13.20;;;;;;;8.79;48.04;99750.59;4545057;77;28541;-86
2022/03/05 19:52:03;;;;;;;26.42;14.93;;;;;;;8.45;48.72;99764.86;4539543;77;43202;-81
2022/03/05 19:58:06;;;;;;;30.97;16.40;;;;;;;8.65;48.06;99760.45;4559047;77;44133;-84
2022/03/05 20:04:07;;;;;;;29.15;16.07;;;;;;;8.58;49.60;99764.94;4559206;77;28435;-80
2022/03/05 20:10:11;;;;;;;28.47;15.25;;;;;;;8.99;48.34;99762.39;4564373;76;28605;-79
2022/03/05 20:16:12;;;;;;;36.08;19.32;;;;;;;8.99;48.84;99763.23;4516222;77;44480;-80
2022/03/05 20:22:13;;;;;;;35.38;17.45;;;;;;;8.79;49.75;99762.66;4553512;77;44448;-81
2022/03/05 20:28:17;;;;;;;36.50;18.25;;;;;;;8.67;50.40;99765.61;4488251;77;28484;-80
2022/03/05 20:34:18;;;;;;;35.35;18.50;;;;;;;8.86;49.62;99776.08;4423890;78;28610;-82
2022/03/05 20:40:19;;;;;;;40.40;18.95;;;;;;;8.59;50.90;99771.98;4431414;79;44417;-86
2022/03/05 20:46:21;;;;;;;35.05;18.20;;;;;;;8.65;51.11;99770.36;4466877;78;28542;-83
2022/03/05 20:52:22;;;;;;;40.85;19.40;;;;;;;8.41;52.09;99759.59;4457844;78;28484;-79
2022/03/05 20:58:23;;;;;;;34.75;18.10;;;;;;;8.75;51.15;99761.92;4468661;78;28455;-84
2022/03/05 21:04:25;;;;;;;37.98;18.87;;;;;;;8.48;51.66;99769.81;4453028;78;44489;-85
2022/03/05 21:10:27;;;;;;;39.67;18.50;;;;;;;8.45;51.73;99758.16;4430824;79;44457;-80
